Impacts TAF Board
For situational awareness. Not to be used for flight planning purposes.
IDs:

KEWR - Newark Intl, NJ, US

Issued at 1940 UTC 23 Oct 2021
Updated at 2109 UTC 23 Oct 2021
Potential Impact None Slight Moderate High
Time2051Z 23/22Z 23/23Z 24/00Z 24/01Z 24/02Z 24/03Z 24/04Z 24/05Z 24/06Z 24/07Z 24/08Z 24/09Z 24/10Z>>
Type OBS PRVL PRVL PRVL PRVL PRVL PRVL PRVL PRVL PRVL PRVL PRVL PRVL PRVL
VIS 10 >6 >6 >6 >6 >6 >6 >6 >6 >6 >6 >6 >6 >6
CIG 65 45 45 45 45 60 60 60 -- -- -- -- -- --
Cover OVC BKN BKN BKN BKN BKN BKN BKN SCT SCT SCT SCT SCT SCT
FltCat VFR VFR VFR VFR VFR VFR VFR VFR VFR VFR VFR VFR VFR VFR
WX -- VCSH VCSH VCSH VCSH -- -- -- -- -- -- -- -- --
WDir 260 270 270 270 270 280 280 280 290 290 290 290 290 290
WSpd 9 7 7 7 7 5 5 5 5 5 5 5 5 5
WGst -- -- -- -- -- -- -- -- -- -- -- -- -- --
Raw TAF
KEWR 231940Z 2320/2424 27004KT P6SM BKN060
  FM232100 27007KT P6SM VCSH BKN045
  FM240200 28005KT P6SM BKN060
  FM240500 29005KT P6SM SCT250
  FM241700 25005KT P6SM FEW250
  FM242300 21005KT P6SM BKN250


Raw METAR
KEWR 232051Z 26009KT 10SM SCT043 BKN065 OVC100 17/07 A2994 RMK AO2 SLP138 T01670067 55001
KEWR 231951Z 26008KT 10SM FEW040 SCT049 BKN060 BKN130 17/06 A2993 RMK AO2 SLP134 T01670061
KEWR 231851Z 23006KT 10SM FEW040 SCT049 BKN055 BKN130 18/07 A2993 RMK AO2 SLP135 T01780067

METAR Board
Radar Display
Forecast Discussion
For situational awareness. Not to be used for flight planning purposes.